EZY56T EHEH-EDDF
Flight info
| Callsign | EZY56T |
|---|---|
| Flight time | 0h 37m |
| Altitude | 19000 |
| Route | LNO L607 ARCKY T181 TOBOP/N0422F230 T180 NIVNU T847 IMCOM IMCOM1A |
| Aircraft | A320/M-SDE3FGHIRWY/LB1 |
Departure
| Time | 2026-05-04 14:35 |
|---|---|
| Airport | Eindhoven Airport (EHEH) |
Arrival
| Time | 2026-05-04 15:12 |
|---|---|
| Airport | Frankfurt Main Airport (EDDF) |
| Time | Latitude | Longitude | Altitude | Speed | Heading |
|---|---|---|---|---|---|
| 2026-05-04 14:14 | 51.45756 | 5.38929 | 76 ft | 0 kts | 125° |
| 2026-05-04 14:28 | 51.45761 | 5.38917 | 75 ft | 2 kts | 124° |
| 2026-05-04 14:29 | 51.45779 | 5.38873 | 65 ft | 2 kts | 119° |
| 2026-05-04 14:29 | 51.45785 | 5.38825 | 64 ft | 2 kts | 33° |
| 2026-05-04 14:30 | 51.45772 | 5.38809 | 67 ft | 2 kts | 36° |
| 2026-05-04 14:30 | 51.45763 | 5.38799 | 64 ft | 0 kts | 36° |
| 2026-05-04 14:32 | 51.45766 | 5.38803 | 64 ft | 5 kts | 36° |
| 2026-05-04 14:32 | 51.45816 | 5.38861 | 70 ft | 7 kts | 36° |
| 2026-05-04 14:32 | 51.45847 | 5.38898 | 72 ft | 11 kts | 39° |
| 2026-05-04 14:32 | 51.45911 | 5.38969 | 73 ft | 9 kts | 34° |
| 2026-05-04 14:33 | 51.45968 | 5.38981 | 75 ft | 13 kts | 332° |
| 2026-05-04 14:33 | 51.46024 | 5.38874 | 78 ft | 10 kts | 304° |
| 2026-05-04 14:33 | 51.46042 | 5.38830 | 83 ft | 3 kts | 303° |
| 2026-05-04 14:33 | 51.46054 | 5.38800 | 82 ft | 7 kts | 303° |
| 2026-05-04 14:34 | 51.46091 | 5.38710 | 82 ft | 10 kts | 304° |
| 2026-05-04 14:34 | 51.46079 | 5.38645 | 84 ft | 4 kts | 227° |
| 2026-05-04 14:34 | 51.46030 | 5.38586 | 85 ft | 27 kts | 216° |
| 2026-05-04 14:34 | 51.45661 | 5.38171 | 72 ft | 98 kts | 214° |
| 2026-05-04 14:35 | 51.44950 | 5.37381 | 70 ft | 152 kts | 216° |
| 2026-05-04 14:35 | 51.44005 | 5.36280 | 368 ft | 174 kts | 216° |
| 2026-05-04 14:35 | 51.43005 | 5.35155 | 1096 ft | 174 kts | 215° |
| 2026-05-04 14:35 | 51.41969 | 5.34008 | 1528 ft | 192 kts | 215° |
| 2026-05-04 14:36 | 51.40784 | 5.32731 | 1766 ft | 220 kts | 213° |
| 2026-05-04 14:36 | 51.39367 | 5.31737 | 2473 ft | 226 kts | 188° |
| 2026-05-04 14:36 | 51.37794 | 5.32037 | 3202 ft | 232 kts | 157° |
| 2026-05-04 14:36 | 51.36498 | 5.33532 | 4063 ft | 233 kts | 130° |
| 2026-05-04 14:37 | 51.35743 | 5.35840 | 4818 ft | 238 kts | 102° |
| 2026-05-04 14:37 | 51.35786 | 5.38480 | 5593 ft | 242 kts | 73° |
| 2026-05-04 14:37 | 51.36423 | 5.40975 | 6401 ft | 243 kts | 70° |
| 2026-05-04 14:37 | 51.36891 | 5.43598 | 7146 ft | 245 kts | 81° |
| 2026-05-04 14:38 | 51.37013 | 5.46328 | 7886 ft | 248 kts | 92° |
| 2026-05-04 14:38 | 51.36964 | 5.49095 | 8633 ft | 250 kts | 92° |
| 2026-05-04 14:38 | 51.36908 | 5.51904 | 9393 ft | 254 kts | 92° |
| 2026-05-04 14:38 | 51.36848 | 5.54740 | 10133 ft | 257 kts | 92° |
| 2026-05-04 14:39 | 51.36752 | 5.57646 | 10490 ft | 276 kts | 101° |
| 2026-05-04 14:39 | 51.35978 | 5.60559 | 10709 ft | 297 kts | 129° |
| 2026-05-04 14:39 | 51.34312 | 5.62641 | 10919 ft | 318 kts | 159° |
| 2026-05-04 14:40 | 51.29649 | 5.63742 | 11296 ft | 360 kts | 176° |
| 2026-05-04 14:40 | 51.27112 | 5.63963 | 11921 ft | 369 kts | 178° |
| 2026-05-04 14:40 | 51.24527 | 5.64150 | 12666 ft | 374 kts | 178° |
| 2026-05-04 14:40 | 51.21915 | 5.64349 | 13369 ft | 378 kts | 177° |
| 2026-05-04 14:41 | 51.19271 | 5.64580 | 14015 ft | 381 kts | 177° |
| 2026-05-04 14:41 | 51.16617 | 5.64841 | 14615 ft | 383 kts | 176° |
| 2026-05-04 14:41 | 51.11263 | 5.65420 | 15862 ft | 387 kts | 176° |
| 2026-05-04 14:42 | 51.05854 | 5.66018 | 17088 ft | 392 kts | 176° |
| 2026-05-04 14:42 | 51.03157 | 5.66318 | 17703 ft | 394 kts | 176° |
| 2026-05-04 14:42 | 51.00421 | 5.66616 | 18312 ft | 396 kts | 176° |
| 2026-05-04 14:43 | 50.97653 | 5.66915 | 18805 ft | 398 kts | 176° |
| 2026-05-04 14:43 | 50.94897 | 5.67209 | 18957 ft | 397 kts | 176° |
| 2026-05-04 14:43 | 50.92077 | 5.67505 | 19002 ft | 414 kts | 177° |
| 2026-05-04 14:43 | 50.89147 | 5.67807 | 19003 ft | 427 kts | 176° |
| 2026-05-04 14:44 | 50.86161 | 5.68113 | 19004 ft | 430 kts | 177° |
| 2026-05-04 14:44 | 50.83169 | 5.68428 | 18998 ft | 431 kts | 176° |
| 2026-05-04 14:44 | 50.80172 | 5.68745 | 18998 ft | 431 kts | 176° |
| 2026-05-04 14:44 | 50.77173 | 5.69060 | 18999 ft | 431 kts | 176° |
| 2026-05-04 14:45 | 50.74177 | 5.69377 | 18997 ft | 431 kts | 176° |
| 2026-05-04 14:45 | 50.71184 | 5.69695 | 18996 ft | 431 kts | 176° |
| 2026-05-04 14:45 | 50.68191 | 5.70020 | 18999 ft | 431 kts | 176° |
| 2026-05-04 14:45 | 50.65200 | 5.70342 | 18998 ft | 431 kts | 176° |
| 2026-05-04 14:46 | 50.62267 | 5.70912 | 18995 ft | 431 kts | 169° |
| 2026-05-04 14:46 | 50.59357 | 5.72311 | 18998 ft | 433 kts | 159° |
| 2026-05-04 14:46 | 50.56710 | 5.74447 | 18996 ft | 434 kts | 149° |
| 2026-05-04 14:46 | 50.54312 | 5.77339 | 18993 ft | 436 kts | 139° |
| 2026-05-04 14:47 | 50.52108 | 5.80617 | 18991 ft | 436 kts | 138° |
| 2026-05-04 14:47 | 50.49908 | 5.83884 | 18991 ft | 435 kts | 139° |
| 2026-05-04 14:47 | 50.47700 | 5.87145 | 18988 ft | 435 kts | 139° |
| 2026-05-04 14:47 | 50.45488 | 5.90400 | 18985 ft | 435 kts | 139° |
| 2026-05-04 14:48 | 50.43279 | 5.93645 | 18986 ft | 435 kts | 139° |
| 2026-05-04 14:48 | 50.41064 | 5.96895 | 18989 ft | 435 kts | 139° |
| 2026-05-04 14:48 | 50.38858 | 6.00130 | 18984 ft | 435 kts | 139° |
| 2026-05-04 14:48 | 50.36663 | 6.03386 | 18981 ft | 436 kts | 136° |
| 2026-05-04 14:49 | 50.34829 | 6.07196 | 18980 ft | 441 kts | 121° |
| 2026-05-04 14:49 | 50.33718 | 6.11688 | 18979 ft | 447 kts | 105° |
| 2026-05-04 14:49 | 50.33477 | 6.16537 | 18979 ft | 452 kts | 88° |
| 2026-05-04 14:49 | 50.34160 | 6.21376 | 18976 ft | 458 kts | 70° |
| 2026-05-04 14:50 | 50.35723 | 6.25699 | 18972 ft | 462 kts | 53° |
| 2026-05-04 14:50 | 50.37779 | 6.29597 | 18966 ft | 462 kts | 55° |
| 2026-05-04 14:50 | 50.39200 | 6.34048 | 18958 ft | 456 kts | 77° |
| 2026-05-04 14:50 | 50.39523 | 6.38881 | 18958 ft | 449 kts | 98° |
| 2026-05-04 14:51 | 50.38765 | 6.43609 | 18960 ft | 442 kts | 114° |
| 2026-05-04 14:51 | 50.37660 | 6.48116 | 18957 ft | 443 kts | 114° |
| 2026-05-04 14:51 | 50.36928 | 6.51098 | 18959 ft | 443 kts | 114° |
| 2026-05-04 14:51 | 50.35850 | 6.55637 | 18952 ft | 444 kts | 112° |
| 2026-05-04 14:52 | 50.34837 | 6.60198 | 18955 ft | 445 kts | 111° |
| 2026-05-04 14:52 | 50.33862 | 6.64808 | 18964 ft | 445 kts | 111° |
| 2026-05-04 14:52 | 50.32599 | 6.70911 | 18966 ft | 446 kts | 110° |
| 2026-05-04 14:52 | 50.31639 | 6.75534 | 18977 ft | 446 kts | 111° |
| 2026-05-04 14:53 | 50.30979 | 6.78658 | 18981 ft | 446 kts | 111° |
| 2026-05-04 14:53 | 50.29994 | 6.83256 | 18985 ft | 446 kts | 111° |
| 2026-05-04 14:53 | 50.29007 | 6.87794 | 18989 ft | 446 kts | 111° |
| 2026-05-04 14:53 | 50.28003 | 6.92380 | 18987 ft | 446 kts | 111° |
| 2026-05-04 14:54 | 50.26992 | 6.96987 | 18991 ft | 446 kts | 111° |
| 2026-05-04 14:54 | 50.25988 | 7.01568 | 18989 ft | 446 kts | 111° |
| 2026-05-04 14:54 | 50.24983 | 7.06152 | 18985 ft | 446 kts | 112° |
| 2026-05-04 14:54 | 50.23977 | 7.10726 | 18808 ft | 442 kts | 112° |
| 2026-05-04 14:55 | 50.22981 | 7.15256 | 18571 ft | 439 kts | 112° |
| 2026-05-04 14:55 | 50.21989 | 7.19765 | 18339 ft | 438 kts | 112° |
| 2026-05-04 14:55 | 50.21003 | 7.24241 | 17933 ft | 434 kts | 112° |
| 2026-05-04 14:55 | 50.20025 | 7.28673 | 17136 ft | 432 kts | 111° |
| 2026-05-04 14:56 | 50.19045 | 7.33100 | 16423 ft | 429 kts | 111° |
| 2026-05-04 14:56 | 50.18077 | 7.37470 | 15715 ft | 426 kts | 111° |
| 2026-05-04 14:56 | 50.17484 | 7.41992 | 14993 ft | 428 kts | 96° |
| 2026-05-04 14:56 | 50.17550 | 7.46621 | 14289 ft | 422 kts | 89° |
| 2026-05-04 14:57 | 50.17701 | 7.51119 | 13506 ft | 414 kts | 89° |
| 2026-05-04 14:57 | 50.17858 | 7.55575 | 12955 ft | 407 kts | 89° |
| 2026-05-04 14:57 | 50.18011 | 7.59972 | 12322 ft | 403 kts | 89° |
| 2026-05-04 14:57 | 50.18160 | 7.64312 | 11654 ft | 399 kts | 90° |
| 2026-05-04 14:58 | 50.18306 | 7.68658 | 11152 ft | 398 kts | 90° |
| 2026-05-04 14:58 | 50.18446 | 7.72973 | 10972 ft | 398 kts | 90° |
| 2026-05-04 14:58 | 50.18583 | 7.77290 | 10999 ft | 399 kts | 90° |
| 2026-05-04 14:58 | 50.18717 | 7.81547 | 10999 ft | 399 kts | 90° |
| 2026-05-04 14:59 | 50.18852 | 7.85941 | 10996 ft | 399 kts | 90° |
| 2026-05-04 14:59 | 50.18982 | 7.90199 | 10997 ft | 399 kts | 90° |
| 2026-05-04 14:59 | 50.19245 | 7.98844 | 10988 ft | 398 kts | 90° |
| 2026-05-04 15:00 | 50.19373 | 8.03148 | 10991 ft | 398 kts | 90° |
| 2026-05-04 15:00 | 50.19498 | 8.07410 | 10991 ft | 398 kts | 90° |
| 2026-05-04 15:00 | 50.19626 | 8.11747 | 10836 ft | 394 kts | 90° |
| 2026-05-04 15:01 | 50.19870 | 8.20205 | 9788 ft | 380 kts | 90° |
| 2026-05-04 15:01 | 50.19977 | 8.24180 | 9619 ft | 352 kts | 91° |
| 2026-05-04 15:01 | 50.20083 | 8.27852 | 9471 ft | 324 kts | 91° |
| 2026-05-04 15:01 | 50.20184 | 8.31226 | 9304 ft | 300 kts | 91° |
| 2026-05-04 15:02 | 50.20276 | 8.34397 | 8997 ft | 292 kts | 91° |
| 2026-05-04 15:02 | 50.20362 | 8.37557 | 8985 ft | 291 kts | 91° |
| 2026-05-04 15:02 | 50.20442 | 8.40713 | 8993 ft | 291 kts | 91° |
| 2026-05-04 15:02 | 50.20519 | 8.43877 | 8990 ft | 291 kts | 91° |
| 2026-05-04 15:03 | 50.20595 | 8.47039 | 8991 ft | 291 kts | 91° |
| 2026-05-04 15:03 | 50.20674 | 8.50189 | 8981 ft | 290 kts | 91° |
| 2026-05-04 15:03 | 50.20754 | 8.53329 | 8977 ft | 290 kts | 91° |
| 2026-05-04 15:03 | 50.20834 | 8.56477 | 8977 ft | 289 kts | 91° |
| 2026-05-04 15:04 | 50.20915 | 8.59620 | 8980 ft | 289 kts | 91° |
| 2026-05-04 15:04 | 50.20993 | 8.62754 | 8978 ft | 289 kts | 91° |
| 2026-05-04 15:04 | 50.21067 | 8.65889 | 8971 ft | 289 kts | 91° |
| 2026-05-04 15:04 | 50.21143 | 8.69018 | 8973 ft | 289 kts | 91° |
| 2026-05-04 15:05 | 50.21217 | 8.72147 | 8790 ft | 287 kts | 91° |
| 2026-05-04 15:05 | 50.21289 | 8.75248 | 8415 ft | 286 kts | 91° |
| 2026-05-04 15:05 | 50.21361 | 8.78359 | 8066 ft | 285 kts | 91° |
| 2026-05-04 15:05 | 50.21124 | 8.81384 | 7732 ft | 277 kts | 113° |
| 2026-05-04 15:06 | 50.20171 | 8.83894 | 7106 ft | 270 kts | 131° |
| 2026-05-04 15:06 | 50.18962 | 8.86135 | 6431 ft | 270 kts | 133° |
| 2026-05-04 15:06 | 50.17632 | 8.88146 | 5912 ft | 259 kts | 151° |
| 2026-05-04 15:07 | 50.14505 | 8.90049 | 5175 ft | 233 kts | 173° |
| 2026-05-04 15:07 | 50.12924 | 8.89903 | 4650 ft | 226 kts | 201° |
| 2026-05-04 15:07 | 50.11566 | 8.88695 | 4364 ft | 224 kts | 225° |
| 2026-05-04 15:07 | 50.10674 | 8.86804 | 4098 ft | 213 kts | 248° |
| 2026-05-04 15:08 | 50.10168 | 8.84705 | 3836 ft | 202 kts | 251° |
| 2026-05-04 15:08 | 50.09695 | 8.82691 | 3570 ft | 194 kts | 251° |
| 2026-05-04 15:08 | 50.09242 | 8.80764 | 3336 ft | 186 kts | 251° |
| 2026-05-04 15:08 | 50.08808 | 8.78925 | 3107 ft | 176 kts | 251° |
| 2026-05-04 15:09 | 50.08390 | 8.77155 | 2854 ft | 171 kts | 251° |
| 2026-05-04 15:09 | 50.07982 | 8.75427 | 2635 ft | 170 kts | 250° |
| 2026-05-04 15:09 | 50.07574 | 8.73701 | 2407 ft | 169 kts | 252° |
| 2026-05-04 15:10 | 50.06808 | 8.70223 | 1991 ft | 165 kts | 259° |
| 2026-05-04 15:10 | 50.06625 | 8.68576 | 1884 ft | 148 kts | 261° |
| 2026-05-04 15:10 | 50.06181 | 8.65569 | 1378 ft | 140 kts | 251° |
| 2026-05-04 15:11 | 50.05823 | 8.64161 | 1108 ft | 139 kts | 250° |
| 2026-05-04 15:11 | 50.05475 | 8.62753 | 931 ft | 140 kts | 249° |
| 2026-05-04 15:11 | 50.05151 | 8.61328 | 772 ft | 140 kts | 249° |
| 2026-05-04 15:11 | 50.04813 | 8.59913 | 588 ft | 139 kts | 248° |
| 2026-05-04 15:12 | 50.04472 | 8.58525 | 410 ft | 137 kts | 250° |
| 2026-05-04 15:12 | 50.04175 | 8.57268 | 368 ft | 99 kts | 249° |
| 2026-05-04 15:12 | 50.03993 | 8.56510 | 356 ft | 50 kts | 249° |
| 2026-05-04 15:12 | 50.03890 | 8.56069 | 359 ft | 42 kts | 255° |
| 2026-05-04 15:13 | 50.03895 | 8.55767 | 358 ft | 26 kts | 278° |
| 2026-05-04 15:13 | 50.03906 | 8.55669 | 352 ft | 0 kts | 281° |
| 2026-05-04 15:13 | 50.03924 | 8.55645 | 350 ft | 9 kts | 332° |
| 2026-05-04 15:13 | 50.03977 | 8.55665 | 350 ft | 13 kts | 52° |
| 2026-05-04 15:14 | 50.04022 | 8.55840 | 352 ft | 17 kts | 72° |
| 2026-05-04 15:14 | 50.04060 | 8.56005 | 354 ft | 16 kts | 69° |
| 2026-05-04 15:14 | 50.04112 | 8.56219 | 358 ft | 24 kts | 70° |
| 2026-05-04 15:14 | 50.04167 | 8.56451 | 356 ft | 23 kts | 69° |
| 2026-05-04 15:15 | 50.04221 | 8.56675 | 363 ft | 21 kts | 69° |
| 2026-05-04 15:15 | 50.04266 | 8.56867 | 360 ft | 17 kts | 70° |
| 2026-05-04 15:15 | 50.04307 | 8.57036 | 362 ft | 16 kts | 69° |
| 2026-05-04 15:16 | 50.04390 | 8.57386 | 368 ft | 21 kts | 71° |
| 2026-05-04 15:16 | 50.04438 | 8.57586 | 365 ft | 18 kts | 68° |
| 2026-05-04 15:16 | 50.04514 | 8.57901 | 368 ft | 14 kts | 70° |
| 2026-05-04 15:17 | 50.04558 | 8.58025 | 362 ft | 13 kts | 31° |
| 2026-05-04 15:17 | 50.04757 | 8.57962 | 362 ft | 15 kts | 20° |
| 2026-05-04 15:17 | 50.04810 | 8.58084 | 358 ft | 13 kts | 71° |
| 2026-05-04 15:18 | 50.04838 | 8.58204 | 362 ft | 12 kts | 70° |
| 2026-05-04 15:18 | 50.04884 | 8.58397 | 361 ft | 21 kts | 70° |
| 2026-05-04 15:18 | 50.04933 | 8.58603 | 366 ft | 19 kts | 69° |
| 2026-05-04 15:19 | 50.05011 | 8.58925 | 362 ft | 12 kts | 69° |
| 2026-05-04 15:19 | 50.05015 | 8.59038 | 364 ft | 10 kts | 129° |
| 2026-05-04 15:19 | 50.04963 | 8.59074 | 362 ft | 0 kts | 160° |